createdAt,value
2022-12-03T00:01:15.988Z,35.50
2022-12-03T00:07:59.294Z,33.30
2022-12-03T00:14:47.315Z,35.40
2022-12-03T00:21:31.085Z,34.70
2022-12-03T00:28:17.618Z,33.10
2022-12-03T00:35:04.581Z,30.40
2022-12-03T00:41:47.868Z,30.50
2022-12-03T00:48:38.714Z,34.20
2022-12-03T00:55:21.969Z,35.00
2022-12-03T01:02:05.418Z,32.80
2022-12-03T01:08:49.130Z,37.30
2022-12-03T01:15:34.236Z,37.80
2022-12-03T01:22:17.784Z,35.30
2022-12-03T01:29:03.239Z,30.30
2022-12-03T01:35:47.949Z,34.30
2022-12-03T01:42:31.475Z,35.00
2022-12-03T01:49:16.539Z,31.00
2022-12-03T01:55:59.645Z,35.30
2022-12-03T02:02:48.528Z,33.90
2022-12-03T02:09:32.783Z,34.30
2022-12-03T02:16:18.206Z,33.40
2022-12-03T02:23:19.282Z,32.60
2022-12-03T02:30:03.936Z,30.10
2022-12-03T02:36:48.063Z,31.70
2022-12-03T02:43:34.371Z,30.50
2022-12-03T02:50:17.912Z,30.60
2022-12-03T02:57:08.635Z,30.50
2022-12-03T03:03:53.948Z,28.00
2022-12-03T03:10:36.880Z,26.30
2022-12-03T03:17:29.172Z,27.00
2022-12-03T03:24:29.004Z,25.20
2022-12-03T03:31:12.477Z,24.90
2022-12-03T03:38:01.339Z,29.50
2022-12-03T03:44:47.504Z,30.10
2022-12-03T03:51:32.191Z,28.40
2022-12-03T03:58:16.420Z,26.40
2022-12-03T04:04:59.644Z,25.60
2022-12-03T04:11:41.354Z,24.60
2022-12-03T04:24:53.188Z,28.00
2022-12-03T04:31:34.884Z,31.30
2022-12-03T04:38:18.086Z,35.60
2022-12-03T04:45:03.233Z,26.40
2022-12-03T04:51:53.399Z,26.70
2022-12-03T04:58:39.373Z,30.50
2022-12-03T05:05:30.076Z,28.10
2022-12-03T05:12:16.589Z,32.60
2022-12-03T05:19:07.061Z,26.50
2022-12-03T05:26:00.082Z,27.10
2022-12-03T05:32:43.356Z,28.50
2022-12-03T05:39:27.694Z,29.30
2022-12-03T05:46:13.662Z,33.20
2022-12-03T05:52:58.783Z,34.40
2022-12-03T06:26:26.307Z,31.70
2022-12-03T06:33:09.449Z,38.60
2022-12-03T06:39:55.184Z,38.30
2022-12-03T06:46:39.739Z,32.40
2022-12-03T06:53:24.072Z,30.60
2022-12-03T07:06:34.920Z,32.70
2022-12-03T07:13:20.528Z,31.90
2022-12-03T07:20:04.164Z,33.10
2022-12-03T07:26:50.942Z,38.30
2022-12-03T07:33:34.784Z,35.30
2022-12-03T07:40:19.481Z,38.00
2022-12-03T07:47:03.855Z,34.50
2022-12-03T07:53:49.620Z,36.70
2022-12-03T08:00:32.722Z,36.30
2022-12-03T08:07:16.010Z,32.50
2022-12-03T08:14:02.410Z,34.90
2022-12-03T08:20:51.144Z,38.40
2022-12-03T08:27:34.126Z,37.80
2022-12-03T08:34:17.186Z,40.20
2022-12-03T08:41:00.486Z,39.40
2022-12-03T08:47:52.393Z,38.90
2022-12-03T09:28:09.789Z,44.40
2022-12-03T09:34:53.197Z,43.70
2022-12-03T09:41:41.610Z,41.80
2022-12-03T09:48:27.763Z,42.80
2022-12-03T09:55:16.482Z,49.30
2022-12-03T10:01:59.616Z,45.40
2022-12-03T10:08:46.101Z,48.20
2022-12-03T10:15:32.518Z,44.50
2022-12-03T10:22:24.379Z,48.10
2022-12-03T10:29:17.469Z,42.30
2022-12-03T10:36:20.790Z,43.40
2022-12-03T10:43:17.577Z,54.10
2022-12-03T10:50:14.114Z,51.40
2022-12-03T10:57:01.391Z,40.80
2022-12-03T11:03:45.136Z,42.30
2022-12-03T11:10:30.264Z,45.60
2022-12-03T11:17:24.372Z,48.90
2022-12-03T11:31:14.921Z,56.60
2022-12-03T12:33:10.971Z,51.60
2022-12-03T12:39:57.491Z,50.10
2022-12-03T12:46:51.626Z,48.00
2022-12-03T12:53:35.181Z,50.70
2022-12-03T13:00:25.642Z,49.40
2022-12-03T13:07:11.401Z,52.60
2022-12-03T13:14:02.422Z,53.60
2022-12-03T13:20:57.594Z,47.50
2022-12-03T13:28:00.375Z,44.90
2022-12-03T13:34:45.819Z,49.10
2022-12-03T13:48:11.844Z,43.70
2022-12-03T13:55:15.656Z,51.00
2022-12-03T14:02:05.412Z,46.20
2022-12-03T14:08:52.170Z,41.80
2022-12-03T14:15:36.053Z,50.40
2022-12-03T14:22:19.822Z,44.90
2022-12-03T14:29:08.605Z,46.80
2022-12-03T14:35:57.201Z,56.70
2022-12-03T14:42:42.282Z,54.50
2022-12-03T14:49:25.371Z,57.60
2022-12-03T14:56:09.116Z,51.50
2022-12-03T15:02:52.835Z,54.20
2022-12-03T15:09:36.529Z,51.50
2022-12-03T15:16:23.850Z,64.00
2022-12-03T15:23:11.243Z,50.90
2022-12-03T15:30:01.317Z,57.00
2022-12-03T15:36:47.204Z,59.60
2022-12-03T15:43:33.402Z,65.10
2022-12-03T15:50:16.682Z,59.20
2022-12-03T15:57:01.548Z,50.60
2022-12-03T16:03:48.330Z,61.10
2022-12-03T16:10:31.199Z,52.00
2022-12-03T16:17:14.720Z,62.10
2022-12-03T16:24:05.882Z,60.50
2022-12-03T16:30:49.187Z,67.20
2022-12-03T16:37:32.794Z,67.30
2022-12-03T16:44:17.083Z,65.80
2022-12-03T16:51:03.310Z,83.90
2022-12-03T16:57:46.985Z,75.70
2022-12-03T17:04:30.180Z,72.10
2022-12-03T17:11:15.176Z,70.80
2022-12-03T17:18:04.478Z,69.60
2022-12-03T17:24:48.795Z,56.70
2022-12-03T17:31:41.428Z,70.10
2022-12-03T17:38:27.754Z,57.30
2022-12-03T17:45:12.726Z,60.40
2022-12-03T17:51:56.321Z,60.20
2022-12-03T17:58:39.861Z,66.70
2022-12-03T18:05:22.808Z,61.10
2022-12-03T18:12:06.393Z,58.70
2022-12-03T18:18:53.754Z,60.60
2022-12-03T18:25:41.767Z,57.10
2022-12-03T18:32:29.320Z,57.40
2022-12-03T18:39:15.542Z,57.60
2022-12-03T18:45:59.048Z,52.60
2022-12-03T18:52:47.321Z,57.10
2022-12-03T18:59:30.538Z,56.10
2022-12-03T19:06:17.227Z,55.20
2022-12-03T19:13:02.717Z,55.20
2022-12-03T19:19:46.865Z,57.10
2022-12-03T19:26:37.298Z,55.60
2022-12-03T19:33:28.242Z,66.20
2022-12-03T19:40:11.877Z,59.60
2022-12-03T19:46:56.361Z,66.10
2022-12-03T19:53:41.301Z,54.90
2022-12-03T19:59:44.811Z,56.20
2022-12-03T20:06:08.140Z,48.70
2022-12-03T20:12:02.597Z,54.20
2022-12-03T20:18:10.550Z,61.40
2022-12-03T20:24:08.584Z,53.10
2022-12-03T20:30:51.613Z,47.10
2022-12-03T20:37:34.227Z,45.40
2022-12-03T20:44:22.328Z,44.90
2022-12-03T20:50:46.686Z,42.10
2022-12-03T20:57:17.397Z,47.40
2022-12-03T21:03:50.514Z,47.20
2022-12-03T21:10:33.287Z,48.10
2022-12-03T21:17:09.545Z,45.70
2022-12-03T21:23:52.055Z,45.90
2022-12-03T21:30:35.747Z,41.70
2022-12-03T21:37:17.762Z,41.50
2022-12-03T21:44:00.392Z,41.40
2022-12-03T21:50:22.756Z,41.30
2022-12-03T21:56:49.092Z,42.50
2022-12-03T22:03:39.644Z,48.90
2022-12-03T22:10:23.913Z,45.30
2022-12-03T22:17:06.897Z,47.40
2022-12-03T22:23:49.864Z,48.60
2022-12-03T22:30:32.360Z,37.90
2022-12-03T22:37:15.601Z,45.50
2022-12-03T22:43:58.988Z,46.10
2022-12-03T22:50:42.422Z,44.80
2022-12-03T22:57:25.194Z,41.60
2022-12-03T23:04:08.422Z,44.70
2022-12-03T23:10:54.683Z,42.10
2022-12-03T23:17:38.025Z,36.00
2022-12-03T23:24:20.957Z,35.60
2022-12-03T23:31:03.991Z,37.30
2022-12-03T23:37:47.023Z,36.60
2022-12-03T23:44:30.197Z,39.90
2022-12-03T23:51:19.135Z,41.60
2022-12-03T23:58:02.433Z,38.90
